sensor_id;sensor_type;location;lat;lon;timestamp;P1;durP1;ratioP1;P2;durP2;ratioP2
66741;SDS011;53654;54.152;19.432;2022-10-31T00:01:35;14.20;;;12.50;;
66741;SDS011;53654;54.152;19.432;2022-10-31T00:04:05;13.60;;;12.20;;
66741;SDS011;53654;54.152;19.432;2022-10-31T00:06:33;13.80;;;12.50;;
66741;SDS011;53654;54.152;19.432;2022-10-31T00:09:03;14.20;;;12.80;;
66741;SDS011;53654;54.152;19.432;2022-10-31T00:11:31;14.40;;;12.90;;
66741;SDS011;53654;54.152;19.432;2022-10-31T00:14:00;13.70;;;12.30;;
66741;SDS011;53654;54.152;19.432;2022-10-31T00:16:28;13.30;;;11.90;;
66741;SDS011;53654;54.152;19.432;2022-10-31T00:18:57;11.90;;;10.70;;
66741;SDS011;53654;54.152;19.432;2022-10-31T00:21:27;11.50;;;10.20;;
66741;SDS011;53654;54.152;19.432;2022-10-31T00:23:56;11.30;;;10.20;;
66741;SDS011;53654;54.152;19.432;2022-10-31T00:26:28;10.30;;;9.30;;
66741;SDS011;53654;54.152;19.432;2022-10-31T00:28:58;10.60;;;9.60;;
66741;SDS011;53654;54.152;19.432;2022-10-31T00:31:27;10.00;;;9.00;;
66741;SDS011;53654;54.152;19.432;2022-10-31T00:33:56;11.20;;;10.10;;
66741;SDS011;53654;54.152;19.432;2022-10-31T00:36:26;10.50;;;9.30;;
66741;SDS011;53654;54.152;19.432;2022-10-31T00:38:54;10.50;;;9.40;;
66741;SDS011;53654;54.152;19.432;2022-10-31T00:41:22;11.00;;;9.80;;
66741;SDS011;53654;54.152;19.432;2022-10-31T00:43:50;10.60;;;9.40;;
66741;SDS011;53654;54.152;19.432;2022-10-31T00:46:18;9.50;;;8.60;;
66741;SDS011;53654;54.152;19.432;2022-10-31T00:48:46;9.80;;;8.90;;
66741;SDS011;53654;54.152;19.432;2022-10-31T00:51:14;9.90;;;8.80;;
66741;SDS011;53654;54.152;19.432;2022-10-31T00:53:43;10.70;;;9.10;;
66741;SDS011;53654;54.152;19.432;2022-10-31T00:56:11;10.10;;;9.00;;
66741;SDS011;53654;54.152;19.432;2022-10-31T00:58:40;9.70;;;8.90;;
66741;SDS011;53654;54.152;19.432;2022-10-31T01:01:08;9.80;;;8.90;;
66741;SDS011;53654;54.152;19.432;2022-10-31T01:03:37;9.90;;;8.90;;
66741;SDS011;53654;54.152;19.432;2022-10-31T01:06:12;9.70;;;8.70;;
66741;SDS011;53654;54.152;19.432;2022-10-31T01:08:41;9.90;;;8.80;;
66741;SDS011;53654;54.152;19.432;2022-10-31T01:11:13;10.30;;;8.50;;
66741;SDS011;53654;54.152;19.432;2022-10-31T01:13:44;9.10;;;8.20;;
66741;SDS011;53654;54.152;19.432;2022-10-31T01:16:13;9.30;;;8.30;;
66741;SDS011;53654;54.152;19.432;2022-10-31T01:18:43;10.10;;;8.60;;
66741;SDS011;53654;54.152;19.432;2022-10-31T01:21:13;9.10;;;8.20;;
66741;SDS011;53654;54.152;19.432;2022-10-31T01:23:43;10.00;;;8.70;;
66741;SDS011;53654;54.152;19.432;2022-10-31T01:28:46;10.00;;;9.00;;
66741;SDS011;53654;54.152;19.432;2022-10-31T01:31:19;10.70;;;9.60;;
66741;SDS011;53654;54.152;19.432;2022-10-31T01:33:49;9.90;;;8.90;;
66741;SDS011;53654;54.152;19.432;2022-10-31T01:36:23;10.30;;;8.40;;
66741;SDS011;53654;54.152;19.432;2022-10-31T01:38:52;9.20;;;8.30;;
66741;SDS011;53654;54.152;19.432;2022-10-31T01:41:22;9.90;;;8.90;;
66741;SDS011;53654;54.152;19.432;2022-10-31T01:43:57;9.00;;;8.10;;
66741;SDS011;53654;54.152;19.432;2022-10-31T01:46:31;9.10;;;8.20;;
66741;SDS011;53654;54.152;19.432;2022-10-31T01:49:05;9.50;;;8.60;;
66741;SDS011;53654;54.152;19.432;2022-10-31T01:51:41;9.90;;;8.90;;
66741;SDS011;53654;54.152;19.432;2022-10-31T01:54:15;10.10;;;9.10;;
66741;SDS011;53654;54.152;19.432;2022-10-31T01:56:48;10.80;;;9.70;;
66741;SDS011;53654;54.152;19.432;2022-10-31T01:59:19;10.80;;;9.70;;
66741;SDS011;53654;54.152;19.432;2022-10-31T02:01:49;11.40;;;10.10;;
66741;SDS011;53654;54.152;19.432;2022-10-31T02:04:19;11.70;;;10.50;;
66741;SDS011;53654;54.152;19.432;2022-10-31T02:06:50;10.80;;;9.80;;
66741;SDS011;53654;54.152;19.432;2022-10-31T02:09:23;12.40;;;11.20;;
66741;SDS011;53654;54.152;19.432;2022-10-31T02:11:55;19.00;;;15.40;;
66741;SDS011;53654;54.152;19.432;2022-10-31T02:14:27;19.90;;;16.30;;
66741;SDS011;53654;54.152;19.432;2022-10-31T02:16:57;19.30;;;17.00;;
66741;SDS011;53654;54.152;19.432;2022-10-31T02:21:56;21.10;;;17.70;;
66741;SDS011;53654;54.152;19.432;2022-10-31T02:24:40;20.10;;;16.60;;
66741;SDS011;53654;54.152;19.432;2022-10-31T02:30:16;22.50;;;17.80;;
66741;SDS011;53654;54.152;19.432;2022-10-31T02:32:50;21.20;;;17.60;;
66741;SDS011;53654;54.152;19.432;2022-10-31T02:41:22;21.00;;;18.00;;
66741;SDS011;53654;54.152;19.432;2022-10-31T02:44:16;20.50;;;18.00;;
66741;SDS011;53654;54.152;19.432;2022-10-31T02:46:49;21.60;;;17.90;;
66741;SDS011;53654;54.152;19.432;2022-10-31T02:49:23;19.10;;;17.00;;
66741;SDS011;53654;54.152;19.432;2022-10-31T02:52:00;20.30;;;16.90;;
66741;SDS011;53654;54.152;19.432;2022-10-31T02:54:28;20.70;;;17.40;;
66741;SDS011;53654;54.152;19.432;2022-10-31T02:56:58;18.30;;;16.40;;
66741;SDS011;53654;54.152;19.432;2022-10-31T02:59:31;19.00;;;16.60;;
66741;SDS011;53654;54.152;19.432;2022-10-31T03:02:06;18.40;;;15.50;;
66741;SDS011;53654;54.152;19.432;2022-10-31T03:15:49;16.40;;;14.70;;
66741;SDS011;53654;54.152;19.432;2022-10-31T03:18:29;15.90;;;14.20;;
66741;SDS011;53654;54.152;19.432;2022-10-31T03:23:41;15.60;;;13.60;;
66741;SDS011;53654;54.152;19.432;2022-10-31T03:26:19;15.70;;;14.00;;
66741;SDS011;53654;54.152;19.432;2022-10-31T03:31:21;16.90;;;15.10;;
66741;SDS011;53654;54.152;19.432;2022-10-31T03:33:54;15.00;;;13.40;;
66741;SDS011;53654;54.152;19.432;2022-10-31T03:36:29;15.50;;;14.00;;
66741;SDS011;53654;54.152;19.432;2022-10-31T03:39:01;15.60;;;13.90;;
66741;SDS011;53654;54.152;19.432;2022-10-31T03:41:32;15.20;;;13.70;;
66741;SDS011;53654;54.152;19.432;2022-10-31T03:44:10;15.40;;;13.80;;
66741;SDS011;53654;54.152;19.432;2022-10-31T03:46:42;16.20;;;14.20;;
66741;SDS011;53654;54.152;19.432;2022-10-31T03:49:11;15.60;;;14.00;;
66741;SDS011;53654;54.152;19.432;2022-10-31T03:51:42;15.70;;;14.10;;
66741;SDS011;53654;54.152;19.432;2022-10-31T03:59:50;15.70;;;13.60;;
66741;SDS011;53654;54.152;19.432;2022-10-31T04:02:22;16.50;;;14.10;;
66741;SDS011;53654;54.152;19.432;2022-10-31T04:04:56;18.00;;;14.30;;
66741;SDS011;53654;54.152;19.432;2022-10-31T04:07:27;15.80;;;14.20;;
66741;SDS011;53654;54.152;19.432;2022-10-31T04:09:58;15.80;;;14.20;;
66741;SDS011;53654;54.152;19.432;2022-10-31T04:12:29;16.20;;;14.40;;
66741;SDS011;53654;54.152;19.432;2022-10-31T04:15:20;15.40;;;13.90;;
66741;SDS011;53654;54.152;19.432;2022-10-31T04:17:51;15.60;;;14.00;;
66741;SDS011;53654;54.152;19.432;2022-10-31T04:20:33;15.50;;;13.60;;
66741;SDS011;53654;54.152;19.432;2022-10-31T04:23:03;14.60;;;13.10;;
66741;SDS011;53654;54.152;19.432;2022-10-31T04:25:35;14.90;;;13.30;;
66741;SDS011;53654;54.152;19.432;2022-10-31T04:28:03;15.00;;;13.40;;
66741;SDS011;53654;54.152;19.432;2022-10-31T04:30:31;14.60;;;13.10;;
66741;SDS011;53654;54.152;19.432;2022-10-31T04:32:59;14.40;;;12.90;;
66741;SDS011;53654;54.152;19.432;2022-10-31T04:35:28;14.10;;;12.60;;
66741;SDS011;53654;54.152;19.432;2022-10-31T04:37:56;14.60;;;13.10;;
66741;SDS011;53654;54.152;19.432;2022-10-31T04:40:24;13.70;;;12.30;;
66741;SDS011;53654;54.152;19.432;2022-10-31T04:43:21;13.90;;;12.50;;
66741;SDS011;53654;54.152;19.432;2022-10-31T04:45:49;13.70;;;12.40;;
66741;SDS011;53654;54.152;19.432;2022-10-31T04:48:18;13.00;;;11.80;;
66741;SDS011;53654;54.152;19.432;2022-10-31T04:50:46;13.20;;;11.90;;
66741;SDS011;53654;54.152;19.432;2022-10-31T04:53:22;13.40;;;12.00;;
66741;SDS011;53654;54.152;19.432;2022-10-31T04:56:25;13.50;;;11.70;;
66741;SDS011;53654;54.152;19.432;2022-10-31T04:58:57;12.70;;;11.40;;
66741;SDS011;53654;54.152;19.432;2022-10-31T05:01:26;12.90;;;11.60;;
66741;SDS011;53654;54.152;19.432;2022-10-31T05:03:57;13.50;;;12.10;;
66741;SDS011;53654;54.152;19.432;2022-10-31T05:06:25;13.70;;;12.30;;
66741;SDS011;53654;54.152;19.432;2022-10-31T05:08:52;13.70;;;12.30;;
66741;SDS011;53654;54.152;19.432;2022-10-31T05:11:20;13.90;;;12.40;;
66741;SDS011;53654;54.152;19.432;2022-10-31T05:13:48;13.10;;;11.80;;
66741;SDS011;53654;54.152;19.432;2022-10-31T05:16:36;13.60;;;12.10;;
66741;SDS011;53654;54.152;19.432;2022-10-31T05:19:23;13.20;;;11.80;;
66741;SDS011;53654;54.152;19.432;2022-10-31T05:22:10;13.10;;;11.70;;
66741;SDS011;53654;54.152;19.432;2022-10-31T05:24:38;13.50;;;12.20;;
66741;SDS011;53654;54.152;19.432;2022-10-31T05:27:09;13.60;;;12.10;;
66741;SDS011;53654;54.152;19.432;2022-10-31T05:29:37;15.70;;;13.30;;
66741;SDS011;53654;54.152;19.432;2022-10-31T05:32:05;14.30;;;12.80;;
66741;SDS011;53654;54.152;19.432;2022-10-31T05:35:02;13.20;;;12.00;;
66741;SDS011;53654;54.152;19.432;2022-10-31T05:37:50;13.70;;;12.40;;
66741;SDS011;53654;54.152;19.432;2022-10-31T05:40:19;13.60;;;12.30;;
66741;SDS011;53654;54.152;19.432;2022-10-31T05:42:51;13.20;;;11.90;;
66741;SDS011;53654;54.152;19.432;2022-10-31T05:45:21;13.00;;;11.70;;
66741;SDS011;53654;54.152;19.432;2022-10-31T05:47:58;12.90;;;11.70;;
66741;SDS011;53654;54.152;19.432;2022-10-31T05:50:50;13.60;;;12.30;;
66741;SDS011;53654;54.152;19.432;2022-10-31T05:53:19;13.50;;;12.20;;
66741;SDS011;53654;54.152;19.432;2022-10-31T05:55:47;13.20;;;11.90;;
66741;SDS011;53654;54.152;19.432;2022-10-31T05:58:19;12.80;;;11.50;;
66741;SDS011;53654;54.152;19.432;2022-10-31T06:01:13;13.00;;;11.70;;
66741;SDS011;53654;54.152;19.432;2022-10-31T06:03:43;12.80;;;11.50;;
66741;SDS011;53654;54.152;19.432;2022-10-31T06:06:15;13.30;;;11.90;;
66741;SDS011;53654;54.152;19.432;2022-10-31T06:08:43;13.60;;;12.00;;
66741;SDS011;53654;54.152;19.432;2022-10-31T06:11:13;13.20;;;11.80;;
66741;SDS011;53654;54.152;19.432;2022-10-31T06:14:00;13.70;;;12.30;;
66741;SDS011;53654;54.152;19.432;2022-10-31T06:16:51;13.40;;;12.10;;
66741;SDS011;53654;54.152;19.432;2022-10-31T06:19:51;13.60;;;12.20;;
66741;SDS011;53654;54.152;19.432;2022-10-31T06:22:20;13.80;;;12.40;;
66741;SDS011;53654;54.152;19.432;2022-10-31T06:24:48;13.20;;;11.80;;
66741;SDS011;53654;54.152;19.432;2022-10-31T06:27:21;13.20;;;11.80;;
66741;SDS011;53654;54.152;19.432;2022-10-31T06:29:50;13.00;;;11.70;;
66741;SDS011;53654;54.152;19.432;2022-10-31T06:32:27;12.90;;;11.50;;
66741;SDS011;53654;54.152;19.432;2022-10-31T06:34:55;12.10;;;10.90;;
66741;SDS011;53654;54.152;19.432;2022-10-31T06:37:23;12.50;;;11.30;;
66741;SDS011;53654;54.152;19.432;2022-10-31T06:39:52;12.20;;;10.60;;
66741;SDS011;53654;54.152;19.432;2022-10-31T06:42:20;11.70;;;10.50;;
66741;SDS011;53654;54.152;19.432;2022-10-31T06:44:48;12.00;;;10.60;;
66741;SDS011;53654;54.152;19.432;2022-10-31T06:47:35;12.90;;;11.00;;
66741;SDS011;53654;54.152;19.432;2022-10-31T06:50:27;11.50;;;10.30;;
66741;SDS011;53654;54.152;19.432;2022-10-31T06:52:56;11.70;;;10.50;;
66741;SDS011;53654;54.152;19.432;2022-10-31T06:55:25;11.90;;;10.20;;
66741;SDS011;53654;54.152;19.432;2022-10-31T06:57:54;12.00;;;10.90;;
66741;SDS011;53654;54.152;19.432;2022-10-31T07:00:29;11.70;;;9.90;;
66741;SDS011;53654;54.152;19.432;2022-10-31T07:03:09;11.40;;;10.20;;
66741;SDS011;53654;54.152;19.432;2022-10-31T07:05:39;12.50;;;11.30;;
66741;SDS011;53654;54.152;19.432;2022-10-31T07:08:08;11.80;;;10.40;;
66741;SDS011;53654;54.152;19.432;2022-10-31T07:10:39;11.80;;;10.20;;
66741;SDS011;53654;54.152;19.432;2022-10-31T07:13:12;11.30;;;9.90;;
66741;SDS011;53654;54.152;19.432;2022-10-31T07:15:46;11.80;;;10.20;;
66741;SDS011;53654;54.152;19.432;2022-10-31T07:18:13;12.20;;;10.10;;
66741;SDS011;53654;54.152;19.432;2022-10-31T07:20:42;11.60;;;10.00;;
66741;SDS011;53654;54.152;19.432;2022-10-31T07:23:11;11.60;;;10.40;;
66741;SDS011;53654;54.152;19.432;2022-10-31T07:25:39;12.70;;;11.20;;
66741;SDS011;53654;54.152;19.432;2022-10-31T07:28:22;11.10;;;9.90;;
66741;SDS011;53654;54.152;19.432;2022-10-31T07:30:55;11.00;;;9.40;;
66741;SDS011;53654;54.152;19.432;2022-10-31T07:33:25;14.40;;;12.90;;
66741;SDS011;53654;54.152;19.432;2022-10-31T07:36:13;13.10;;;11.50;;
66741;SDS011;53654;54.152;19.432;2022-10-31T07:38:43;15.30;;;13.80;;
66741;SDS011;53654;54.152;19.432;2022-10-31T07:41:11;11.90;;;10.70;;
66741;SDS011;53654;54.152;19.432;2022-10-31T07:43:42;10.60;;;9.50;;
66741;SDS011;53654;54.152;19.432;2022-10-31T07:46:16;11.80;;;9.30;;
66741;SDS011;53654;54.152;19.432;2022-10-31T07:49:04;10.70;;;9.60;;
66741;SDS011;53654;54.152;19.432;2022-10-31T07:51:50;12.50;;;11.20;;
66741;SDS011;53654;54.152;19.432;2022-10-31T07:54:40;13.90;;;12.40;;
66741;SDS011;53654;54.152;19.432;2022-10-31T07:57:09;15.20;;;12.90;;
66741;SDS011;53654;54.152;19.432;2022-10-31T07:59:37;12.60;;;11.30;;
66741;SDS011;53654;54.152;19.432;2022-10-31T08:02:07;12.10;;;10.80;;
66741;SDS011;53654;54.152;19.432;2022-10-31T08:04:48;11.30;;;10.20;;
66741;SDS011;53654;54.152;19.432;2022-10-31T08:07:37;11.10;;;10.00;;
66741;SDS011;53654;54.152;19.432;2022-10-31T08:10:06;12.10;;;10.30;;
66741;SDS011;53654;54.152;19.432;2022-10-31T08:12:34;12.00;;;10.80;;
66741;SDS011;53654;54.152;19.432;2022-10-31T08:15:03;12.30;;;11.00;;
66741;SDS011;53654;54.152;19.432;2022-10-31T08:17:34;11.80;;;10.60;;
66741;SDS011;53654;54.152;19.432;2022-10-31T08:20:04;10.70;;;9.30;;
66741;SDS011;53654;54.152;19.432;2022-10-31T08:22:35;10.80;;;9.70;;
66741;SDS011;53654;54.152;19.432;2022-10-31T08:25:10;11.00;;;9.90;;
66741;SDS011;53654;54.152;19.432;2022-10-31T08:27:39;10.50;;;9.40;;
66741;SDS011;53654;54.152;19.432;2022-10-31T08:30:14;10.80;;;9.30;;
66741;SDS011;53654;54.152;19.432;2022-10-31T08:33:23;10.80;;;9.60;;
66741;SDS011;53654;54.152;19.432;2022-10-31T08:36:04;11.10;;;10.00;;
66741;SDS011;53654;54.152;19.432;2022-10-31T08:39:01;11.40;;;10.30;;
66741;SDS011;53654;54.152;19.432;2022-10-31T08:41:30;12.00;;;10.70;;
66741;SDS011;53654;54.152;19.432;2022-10-31T08:43:59;11.70;;;10.50;;
66741;SDS011;53654;54.152;19.432;2022-10-31T08:46:27;12.20;;;10.90;;
66741;SDS011;53654;54.152;19.432;2022-10-31T08:48:55;13.20;;;10.80;;
66741;SDS011;53654;54.152;19.432;2022-10-31T08:51:23;13.10;;;10.90;;
66741;SDS011;53654;54.152;19.432;2022-10-31T08:53:53;12.10;;;10.90;;
66741;SDS011;53654;54.152;19.432;2022-10-31T08:56:47;11.40;;;10.30;;
66741;SDS011;53654;54.152;19.432;2022-10-31T08:59:27;12.30;;;10.60;;
66741;SDS011;53654;54.152;19.432;2022-10-31T09:02:28;14.60;;;11.60;;
66741;SDS011;53654;54.152;19.432;2022-10-31T09:04:59;12.40;;;11.10;;
66741;SDS011;53654;54.152;19.432;2022-10-31T09:07:27;13.10;;;11.60;;
66741;SDS011;53654;54.152;19.432;2022-10-31T09:09:55;12.70;;;11.50;;
66741;SDS011;53654;54.152;19.432;2022-10-31T09:12:24;12.20;;;10.90;;
66741;SDS011;53654;54.152;19.432;2022-10-31T09:14:54;13.20;;;11.10;;
66741;SDS011;53654;54.152;19.432;2022-10-31T09:17:37;14.40;;;11.30;;
66741;SDS011;53654;54.152;19.432;2022-10-31T09:20:24;15.00;;;11.40;;
66741;SDS011;53654;54.152;19.432;2022-10-31T09:22:59;13.10;;;11.80;;
66741;SDS011;53654;54.152;19.432;2022-10-31T09:25:29;13.90;;;12.00;;
66741;SDS011;53654;54.152;19.432;2022-10-31T09:28:19;13.40;;;12.00;;
66741;SDS011;53654;54.152;19.432;2022-10-31T09:30:49;14.00;;;12.50;;
66741;SDS011;53654;54.152;19.432;2022-10-31T09:33:35;13.20;;;12.00;;
66741;SDS011;53654;54.152;19.432;2022-10-31T09:36:19;14.30;;;12.80;;
66741;SDS011;53654;54.152;19.432;2022-10-31T09:38:48;19.70;;;14.60;;
66741;SDS011;53654;54.152;19.432;2022-10-31T09:44:07;17.90;;;15.40;;
66741;SDS011;53654;54.152;19.432;2022-10-31T09:49:28;20.10;;;16.30;;
66741;SDS011;53654;54.152;19.432;2022-10-31T09:52:28;19.00;;;15.20;;
66741;SDS011;53654;54.152;19.432;2022-10-31T09:57:44;18.60;;;15.10;;
66741;SDS011;53654;54.152;19.432;2022-10-31T10:00:17;20.00;;;15.70;;
66741;SDS011;53654;54.152;19.432;2022-10-31T10:03:10;22.30;;;16.00;;
66741;SDS011;53654;54.152;19.432;2022-10-31T10:05:43;20.10;;;15.40;;
66741;SDS011;53654;54.152;19.432;2022-10-31T10:08:26;19.40;;;15.40;;
66741;SDS011;53654;54.152;19.432;2022-10-31T10:11:27;21.40;;;16.50;;
66741;SDS011;53654;54.152;19.432;2022-10-31T10:14:19;20.30;;;15.70;;
66741;SDS011;53654;54.152;19.432;2022-10-31T10:16:58;18.80;;;15.30;;
66741;SDS011;53654;54.152;19.432;2022-10-31T10:30:20;26.00;;;20.20;;
66741;SDS011;53654;54.152;19.432;2022-10-31T10:33:08;28.00;;;20.90;;
66741;SDS011;53654;54.152;19.432;2022-10-31T10:35:41;27.10;;;20.40;;
66741;SDS011;53654;54.152;19.432;2022-10-31T10:40:41;28.90;;;20.80;;
66741;SDS011;53654;54.152;19.432;2022-10-31T10:43:19;26.00;;;19.40;;
66741;SDS011;53654;54.152;19.432;2022-10-31T10:54:54;30.80;;;21.50;;
66741;SDS011;53654;54.152;19.432;2022-10-31T11:02:51;30.30;;;21.40;;
66741;SDS011;53654;54.152;19.432;2022-10-31T11:05:24;33.10;;;22.30;;
66741;SDS011;53654;54.152;19.432;2022-10-31T11:08:02;32.60;;;21.20;;
66741;SDS011;53654;54.152;19.432;2022-10-31T11:10:31;33.00;;;21.90;;
66741;SDS011;53654;54.152;19.432;2022-10-31T11:15:49;30.90;;;21.10;;
66741;SDS011;53654;54.152;19.432;2022-10-31T11:18:22;32.80;;;22.60;;
66741;SDS011;53654;54.152;19.432;2022-10-31T11:20:57;27.60;;;21.50;;
66741;SDS011;53654;54.152;19.432;2022-10-31T11:23:27;32.70;;;22.30;;
66741;SDS011;53654;54.152;19.432;2022-10-31T11:28:29;29.50;;;20.90;;
66741;SDS011;53654;54.152;19.432;2022-10-31T11:31:00;29.90;;;22.10;;
66741;SDS011;53654;54.152;19.432;2022-10-31T11:33:39;30.00;;;21.70;;
66741;SDS011;53654;54.152;19.432;2022-10-31T11:38:51;32.10;;;21.90;;
66741;SDS011;53654;54.152;19.432;2022-10-31T11:43:56;36.60;;;28.30;;
66741;SDS011;53654;54.152;19.432;2022-10-31T11:46:34;43.90;;;31.00;;
66741;SDS011;53654;54.152;19.432;2022-10-31T11:49:02;42.20;;;29.10;;
66741;SDS011;53654;54.152;19.432;2022-10-31T11:51:33;38.30;;;23.20;;
66741;SDS011;53654;54.152;19.432;2022-10-31T11:54:03;34.00;;;22.60;;
66741;SDS011;53654;54.152;19.432;2022-10-31T11:56:39;33.50;;;22.20;;
66741;SDS011;53654;54.152;19.432;2022-10-31T11:59:15;36.30;;;25.40;;
66741;SDS011;53654;54.152;19.432;2022-10-31T12:01:56;36.80;;;23.60;;
66741;SDS011;53654;54.152;19.432;2022-10-31T12:04:29;35.40;;;23.40;;
66741;SDS011;53654;54.152;19.432;2022-10-31T12:07:06;37.10;;;22.90;;
66741;SDS011;53654;54.152;19.432;2022-10-31T12:09:35;40.50;;;25.80;;
66741;SDS011;53654;54.152;19.432;2022-10-31T12:15:04;35.90;;;26.00;;
66741;SDS011;53654;54.152;19.432;2022-10-31T12:20:33;38.10;;;23.60;;
66741;SDS011;53654;54.152;19.432;2022-10-31T12:25:53;36.40;;;26.00;;
66741;SDS011;53654;54.152;19.432;2022-10-31T12:42:53;42.00;;;29.80;;
66741;SDS011;53654;54.152;19.432;2022-10-31T12:45:53;37.50;;;26.50;;
66741;SDS011;53654;54.152;19.432;2022-10-31T12:54:01;39.30;;;28.10;;
66741;SDS011;53654;54.152;19.432;2022-10-31T12:56:37;36.80;;;27.10;;
66741;SDS011;53654;54.152;19.432;2022-10-31T12:59:17;38.40;;;28.90;;
66741;SDS011;53654;54.152;19.432;2022-10-31T13:04:54;38.10;;;28.50;;
66741;SDS011;53654;54.152;19.432;2022-10-31T13:12:49;38.60;;;30.40;;
66741;SDS011;53654;54.152;19.432;2022-10-31T13:15:22;38.00;;;32.60;;
66741;SDS011;53654;54.152;19.432;2022-10-31T13:17:54;42.10;;;35.10;;
66741;SDS011;53654;54.152;19.432;2022-10-31T13:20:29;42.20;;;35.10;;
66741;SDS011;53654;54.152;19.432;2022-10-31T13:26:11;42.80;;;36.30;;
66741;SDS011;53654;54.152;19.432;2022-10-31T13:31:17;48.60;;;36.60;;
66741;SDS011;53654;54.152;19.432;2022-10-31T13:34:00;47.90;;;38.30;;
66741;SDS011;53654;54.152;19.432;2022-10-31T13:36:37;48.10;;;38.00;;
66741;SDS011;53654;54.152;19.432;2022-10-31T13:41:55;47.50;;;37.00;;
66741;SDS011;53654;54.152;19.432;2022-10-31T13:44:36;48.90;;;37.70;;
66741;SDS011;53654;54.152;19.432;2022-10-31T13:47:21;49.60;;;37.90;;
66741;SDS011;53654;54.152;19.432;2022-10-31T13:53:03;46.70;;;37.30;;
66741;SDS011;53654;54.152;19.432;2022-10-31T13:55:40;49.00;;;38.80;;
66741;SDS011;53654;54.152;19.432;2022-10-31T13:58:22;48.80;;;37.50;;
66741;SDS011;53654;54.152;19.432;2022-10-31T14:03:44;48.70;;;38.20;;
66741;SDS011;53654;54.152;19.432;2022-10-31T14:06:56;47.10;;;36.70;;
66741;SDS011;53654;54.152;19.432;2022-10-31T14:09:27;50.20;;;37.10;;
66741;SDS011;53654;54.152;19.432;2022-10-31T14:11:59;50.10;;;37.10;;
66741;SDS011;53654;54.152;19.432;2022-10-31T14:14:34;48.40;;;36.20;;
66741;SDS011;53654;54.152;19.432;2022-10-31T14:17:16;46.80;;;37.50;;
66741;SDS011;53654;54.152;19.432;2022-10-31T14:20:00;49.70;;;37.80;;
66741;SDS011;53654;54.152;19.432;2022-10-31T14:22:49;46.80;;;37.30;;
66741;SDS011;53654;54.152;19.432;2022-10-31T14:27:58;49.20;;;38.30;;
66741;SDS011;53654;54.152;19.432;2022-10-31T14:30:33;49.70;;;38.10;;
66741;SDS011;53654;54.152;19.432;2022-10-31T14:33:02;44.60;;;36.30;;
66741;SDS011;53654;54.152;19.432;2022-10-31T14:35:56;50.80;;;38.70;;
66741;SDS011;53654;54.152;19.432;2022-10-31T14:47:20;49.20;;;36.20;;
66741;SDS011;53654;54.152;19.432;2022-10-31T14:50:21;50.40;;;35.70;;
66741;SDS011;53654;54.152;19.432;2022-10-31T14:52:50;45.30;;;34.90;;
66741;SDS011;53654;54.152;19.432;2022-10-31T14:55:21;46.80;;;34.60;;
66741;SDS011;53654;54.152;19.432;2022-10-31T14:57:52;47.40;;;34.10;;
66741;SDS011;53654;54.152;19.432;2022-10-31T15:00:23;45.90;;;33.90;;
66741;SDS011;53654;54.152;19.432;2022-10-31T15:05:29;42.80;;;33.50;;
66741;SDS011;53654;54.152;19.432;2022-10-31T15:08:00;42.50;;;33.90;;
66741;SDS011;53654;54.152;19.432;2022-10-31T15:10:29;43.40;;;34.90;;
66741;SDS011;53654;54.152;19.432;2022-10-31T15:13:10;42.50;;;33.30;;
66741;SDS011;53654;54.152;19.432;2022-10-31T15:15:52;43.30;;;33.20;;
66741;SDS011;53654;54.152;19.432;2022-10-31T15:18:26;44.10;;;33.00;;
66741;SDS011;53654;54.152;19.432;2022-10-31T15:20:56;43.20;;;33.80;;
66741;SDS011;53654;54.152;19.432;2022-10-31T15:23:28;43.50;;;34.50;;
66741;SDS011;53654;54.152;19.432;2022-10-31T15:26:00;42.70;;;33.00;;
66741;SDS011;53654;54.152;19.432;2022-10-31T15:28:30;42.20;;;33.90;;
66741;SDS011;53654;54.152;19.432;2022-10-31T15:31:00;42.50;;;32.90;;
66741;SDS011;53654;54.152;19.432;2022-10-31T15:33:39;45.30;;;33.50;;
66741;SDS011;53654;54.152;19.432;2022-10-31T15:36:21;44.50;;;33.60;;
66741;SDS011;53654;54.152;19.432;2022-10-31T15:38:57;44.40;;;32.80;;
66741;SDS011;53654;54.152;19.432;2022-10-31T15:41:29;41.00;;;32.20;;
66741;SDS011;53654;54.152;19.432;2022-10-31T15:44:03;40.60;;;32.10;;
66741;SDS011;53654;54.152;19.432;2022-10-31T15:46:44;41.90;;;31.70;;
66741;SDS011;53654;54.152;19.432;2022-10-31T15:49:39;42.50;;;32.30;;
66741;SDS011;53654;54.152;19.432;2022-10-31T15:52:15;44.00;;;33.20;;
66741;SDS011;53654;54.152;19.432;2022-10-31T15:54:51;44.70;;;33.20;;
66741;SDS011;53654;54.152;19.432;2022-10-31T15:57:23;45.70;;;34.10;;
66741;SDS011;53654;54.152;19.432;2022-10-31T15:59:54;44.70;;;34.40;;
66741;SDS011;53654;54.152;19.432;2022-10-31T16:02:24;46.50;;;34.40;;
66741;SDS011;53654;54.152;19.432;2022-10-31T16:04:55;47.00;;;35.20;;
66741;SDS011;53654;54.152;19.432;2022-10-31T16:07:25;48.40;;;36.30;;
66741;SDS011;53654;54.152;19.432;2022-10-31T16:09:55;49.90;;;37.80;;
66741;SDS011;53654;54.152;19.432;2022-10-31T16:12:24;50.10;;;37.30;;
66741;SDS011;53654;54.152;19.432;2022-10-31T16:14:56;53.80;;;40.60;;
66741;SDS011;53654;54.152;19.432;2022-10-31T16:17:24;50.30;;;39.90;;
66741;SDS011;53654;54.152;19.432;2022-10-31T16:22:33;53.10;;;40.50;;
66741;SDS011;53654;54.152;19.432;2022-10-31T16:25:13;48.10;;;37.20;;
66741;SDS011;53654;54.152;19.432;2022-10-31T16:27:47;46.00;;;36.90;;
66741;SDS011;53654;54.152;19.432;2022-10-31T16:30:38;47.10;;;36.10;;
66741;SDS011;53654;54.152;19.432;2022-10-31T16:33:22;44.50;;;35.90;;
66741;SDS011;53654;54.152;19.432;2022-10-31T16:35:52;42.60;;;34.90;;
66741;SDS011;53654;54.152;19.432;2022-10-31T16:38:36;42.10;;;33.50;;
66741;SDS011;53654;54.152;19.432;2022-10-31T16:41:04;43.80;;;34.90;;
66741;SDS011;53654;54.152;19.432;2022-10-31T16:43:32;41.10;;;34.00;;
66741;SDS011;53654;54.152;19.432;2022-10-31T16:45:59;40.20;;;32.40;;
66741;SDS011;53654;54.152;19.432;2022-10-31T16:48:27;41.00;;;33.30;;
66741;SDS011;53654;54.152;19.432;2022-10-31T16:50:55;43.50;;;33.90;;
66741;SDS011;53654;54.152;19.432;2022-10-31T16:53:23;40.90;;;34.10;;
66741;SDS011;53654;54.152;19.432;2022-10-31T16:55:55;40.00;;;34.00;;
66741;SDS011;53654;54.152;19.432;2022-10-31T16:58:26;36.90;;;31.80;;
66741;SDS011;53654;54.152;19.432;2022-10-31T17:00:57;35.50;;;30.00;;
66741;SDS011;53654;54.152;19.432;2022-10-31T17:03:26;36.40;;;30.30;;
66741;SDS011;53654;54.152;19.432;2022-10-31T17:05:54;35.60;;;30.10;;
66741;SDS011;53654;54.152;19.432;2022-10-31T17:08:23;34.80;;;28.10;;
66741;SDS011;53654;54.152;19.432;2022-10-31T17:10:52;34.00;;;28.20;;
66741;SDS011;53654;54.152;19.432;2022-10-31T17:13:26;34.80;;;29.50;;
66741;SDS011;53654;54.152;19.432;2022-10-31T17:15:57;34.80;;;28.70;;
66741;SDS011;53654;54.152;19.432;2022-10-31T17:18:26;37.10;;;30.10;;
66741;SDS011;53654;54.152;19.432;2022-10-31T17:20:56;38.80;;;32.10;;
66741;SDS011;53654;54.152;19.432;2022-10-31T17:23:26;37.40;;;32.00;;